sensor_id;sensor_type;location;lat;lon;timestamp;P1;durP1;ratioP1;P2;durP2;ratioP2
11699;SDS011;5906;51.660;6.674;2022-07-21T00:01:10;14.83;;;11.03;;
11699;SDS011;5906;51.660;6.674;2022-07-21T00:03:37;18.23;;;11.10;;
11699;SDS011;5906;51.660;6.674;2022-07-21T00:06:04;24.83;;;12.33;;
11699;SDS011;5906;51.660;6.674;2022-07-21T00:08:31;22.17;;;12.70;;
11699;SDS011;5906;51.660;6.674;2022-07-21T00:10:58;16.83;;;12.50;;
11699;SDS011;5906;51.660;6.674;2022-07-21T00:13:25;17.60;;;12.63;;
11699;SDS011;5906;51.660;6.674;2022-07-21T00:15:52;18.47;;;13.63;;
11699;SDS011;5906;51.660;6.674;2022-07-21T00:18:19;19.30;;;13.93;;
11699;SDS011;5906;51.660;6.674;2022-07-21T00:20:46;18.47;;;13.80;;
11699;SDS011;5906;51.660;6.674;2022-07-21T00:23:13;21.87;;;14.43;;
11699;SDS011;5906;51.660;6.674;2022-07-21T00:25:40;19.37;;;14.73;;
11699;SDS011;5906;51.660;6.674;2022-07-21T00:28:07;21.10;;;13.40;;
11699;SDS011;5906;51.660;6.674;2022-07-21T00:30:34;15.43;;;12.83;;
11699;SDS011;5906;51.660;6.674;2022-07-21T00:33:00;17.90;;;11.80;;
11699;SDS011;5906;51.660;6.674;2022-07-21T00:35:27;17.37;;;12.00;;
11699;SDS011;5906;51.660;6.674;2022-07-21T00:37:54;14.10;;;11.30;;
11699;SDS011;5906;51.660;6.674;2022-07-21T00:40:21;14.80;;;11.93;;
11699;SDS011;5906;51.660;6.674;2022-07-21T00:42:48;17.13;;;11.77;;
11699;SDS011;5906;51.660;6.674;2022-07-21T00:45:15;16.40;;;10.87;;
11699;SDS011;5906;51.660;6.674;2022-07-21T00:47:42;15.90;;;11.60;;
11699;SDS011;5906;51.660;6.674;2022-07-21T00:50:11;13.03;;;10.57;;
11699;SDS011;5906;51.660;6.674;2022-07-21T00:52:39;16.30;;;12.03;;
11699;SDS011;5906;51.660;6.674;2022-07-21T00:55:07;17.33;;;10.80;;
11699;SDS011;5906;51.660;6.674;2022-07-21T00:57:39;14.23;;;11.10;;
11699;SDS011;5906;51.660;6.674;2022-07-21T01:00:07;17.90;;;12.23;;
11699;SDS011;5906;51.660;6.674;2022-07-21T01:02:36;15.97;;;11.63;;
11699;SDS011;5906;51.660;6.674;2022-07-21T01:05:04;14.63;;;10.57;;
11699;SDS011;5906;51.660;6.674;2022-07-21T01:07:32;16.43;;;10.63;;
11699;SDS011;5906;51.660;6.674;2022-07-21T01:09:59;16.80;;;10.53;;
11699;SDS011;5906;51.660;6.674;2022-07-21T01:12:26;14.47;;;10.77;;
11699;SDS011;5906;51.660;6.674;2022-07-21T01:14:53;12.90;;;10.43;;
11699;SDS011;5906;51.660;6.674;2022-07-21T01:17:20;15.10;;;11.07;;
11699;SDS011;5906;51.660;6.674;2022-07-21T01:19:48;15.50;;;11.70;;
11699;SDS011;5906;51.660;6.674;2022-07-21T01:22:15;15.70;;;11.13;;
11699;SDS011;5906;51.660;6.674;2022-07-21T01:24:42;19.93;;;11.17;;
11699;SDS011;5906;51.660;6.674;2022-07-21T01:27:09;17.40;;;12.60;;
11699;SDS011;5906;51.660;6.674;2022-07-21T01:29:35;15.20;;;11.57;;
11699;SDS011;5906;51.660;6.674;2022-07-21T01:32:02;15.00;;;11.70;;
11699;SDS011;5906;51.660;6.674;2022-07-21T01:34:30;18.07;;;11.40;;
11699;SDS011;5906;51.660;6.674;2022-07-21T01:36:57;17.33;;;12.77;;
11699;SDS011;5906;51.660;6.674;2022-07-21T01:39:24;14.07;;;11.13;;
11699;SDS011;5906;51.660;6.674;2022-07-21T01:42:09;25.60;;;13.40;;
11699;SDS011;5906;51.660;6.674;2022-07-21T01:44:36;17.40;;;13.70;;
11699;SDS011;5906;51.660;6.674;2022-07-21T01:47:03;16.40;;;12.43;;
11699;SDS011;5906;51.660;6.674;2022-07-21T01:49:30;17.00;;;11.90;;
11699;SDS011;5906;51.660;6.674;2022-07-21T01:51:57;22.10;;;12.40;;
11699;SDS011;5906;51.660;6.674;2022-07-21T01:54:24;17.63;;;12.80;;
11699;SDS011;5906;51.660;6.674;2022-07-21T01:56:51;19.90;;;12.03;;
11699;SDS011;5906;51.660;6.674;2022-07-21T01:59:19;18.93;;;11.87;;
11699;SDS011;5906;51.660;6.674;2022-07-21T02:01:46;23.47;;;12.67;;
11699;SDS011;5906;51.660;6.674;2022-07-21T02:04:13;17.97;;;12.07;;
11699;SDS011;5906;51.660;6.674;2022-07-21T02:06:40;18.90;;;12.90;;
11699;SDS011;5906;51.660;6.674;2022-07-21T02:09:07;16.97;;;11.90;;
11699;SDS011;5906;51.660;6.674;2022-07-21T02:11:34;16.43;;;11.90;;
11699;SDS011;5906;51.660;6.674;2022-07-21T02:14:02;15.40;;;12.10;;
11699;SDS011;5906;51.660;6.674;2022-07-21T02:16:28;19.20;;;11.70;;
11699;SDS011;5906;51.660;6.674;2022-07-21T02:18:55;15.60;;;12.20;;
11699;SDS011;5906;51.660;6.674;2022-07-21T02:21:23;21.60;;;13.67;;
11699;SDS011;5906;51.660;6.674;2022-07-21T02:23:50;14.70;;;12.50;;
11699;SDS011;5906;51.660;6.674;2022-07-21T02:26:17;18.90;;;12.00;;
11699;SDS011;5906;51.660;6.674;2022-07-21T02:28:44;20.20;;;12.60;;
11699;SDS011;5906;51.660;6.674;2022-07-21T02:31:11;21.37;;;14.03;;
11699;SDS011;5906;51.660;6.674;2022-07-21T02:33:38;19.20;;;13.10;;
11699;SDS011;5906;51.660;6.674;2022-07-21T02:36:05;17.27;;;13.17;;
11699;SDS011;5906;51.660;6.674;2022-07-21T02:38:32;18.83;;;13.50;;
11699;SDS011;5906;51.660;6.674;2022-07-21T02:40:59;22.63;;;12.37;;
11699;SDS011;5906;51.660;6.674;2022-07-21T02:43:26;19.57;;;13.57;;
11699;SDS011;5906;51.660;6.674;2022-07-21T02:45:53;18.03;;;13.27;;
11699;SDS011;5906;51.660;6.674;2022-07-21T02:48:19;21.50;;;14.57;;
11699;SDS011;5906;51.660;6.674;2022-07-21T02:50:46;19.53;;;13.93;;
11699;SDS011;5906;51.660;6.674;2022-07-21T02:53:17;20.87;;;14.70;;
11699;SDS011;5906;51.660;6.674;2022-07-21T02:55:46;18.97;;;13.40;;
11699;SDS011;5906;51.660;6.674;2022-07-21T02:58:14;18.40;;;14.80;;
11699;SDS011;5906;51.660;6.674;2022-07-21T03:00:59;24.53;;;14.90;;
11699;SDS011;5906;51.660;6.674;2022-07-21T03:03:28;19.63;;;14.07;;
11699;SDS011;5906;51.660;6.674;2022-07-21T03:05:57;23.73;;;16.57;;
11699;SDS011;5906;51.660;6.674;2022-07-21T03:08:25;23.87;;;16.23;;
11699;SDS011;5906;51.660;6.674;2022-07-21T03:10:52;22.20;;;15.93;;
11699;SDS011;5906;51.660;6.674;2022-07-21T03:13:20;23.60;;;16.30;;
11699;SDS011;5906;51.660;6.674;2022-07-21T03:15:48;25.73;;;15.80;;
11699;SDS011;5906;51.660;6.674;2022-07-21T03:18:15;22.20;;;15.27;;
11699;SDS011;5906;51.660;6.674;2022-07-21T03:20:44;22.70;;;15.83;;
11699;SDS011;5906;51.660;6.674;2022-07-21T03:23:11;22.63;;;15.97;;
11699;SDS011;5906;51.660;6.674;2022-07-21T03:25:38;21.20;;;15.40;;
11699;SDS011;5906;51.660;6.674;2022-07-21T03:28:05;25.03;;;16.23;;
11699;SDS011;5906;51.660;6.674;2022-07-21T03:30:33;23.30;;;15.67;;
11699;SDS011;5906;51.660;6.674;2022-07-21T03:33:01;23.33;;;15.50;;
11699;SDS011;5906;51.660;6.674;2022-07-21T03:35:28;21.27;;;16.30;;
11699;SDS011;5906;51.660;6.674;2022-07-21T03:37:56;23.10;;;16.20;;
11699;SDS011;5906;51.660;6.674;2022-07-21T03:40:26;26.60;;;16.17;;
11699;SDS011;5906;51.660;6.674;2022-07-21T03:42:56;22.77;;;16.80;;
11699;SDS011;5906;51.660;6.674;2022-07-21T03:45:25;25.53;;;17.47;;
11699;SDS011;5906;51.660;6.674;2022-07-21T03:47:52;26.70;;;18.10;;
11699;SDS011;5906;51.660;6.674;2022-07-21T03:50:19;29.93;;;16.63;;
11699;SDS011;5906;51.660;6.674;2022-07-21T03:52:46;23.77;;;17.70;;
11699;SDS011;5906;51.660;6.674;2022-07-21T03:55:14;26.27;;;18.33;;
11699;SDS011;5906;51.660;6.674;2022-07-21T03:57:46;28.43;;;18.17;;
11699;SDS011;5906;51.660;6.674;2022-07-21T04:00:20;31.40;;;18.10;;
11699;SDS011;5906;51.660;6.674;2022-07-21T04:02:48;21.90;;;16.20;;
11699;SDS011;5906;51.660;6.674;2022-07-21T04:05:16;26.93;;;16.37;;
11699;SDS011;5906;51.660;6.674;2022-07-21T04:07:45;24.53;;;16.17;;
11699;SDS011;5906;51.660;6.674;2022-07-21T04:10:14;23.27;;;17.10;;
11699;SDS011;5906;51.660;6.674;2022-07-21T04:12:42;24.33;;;16.00;;
11699;SDS011;5906;51.660;6.674;2022-07-21T04:15:09;29.57;;;17.47;;
11699;SDS011;5906;51.660;6.674;2022-07-21T04:17:37;23.10;;;16.80;;
11699;SDS011;5906;51.660;6.674;2022-07-21T04:20:05;25.97;;;16.90;;
11699;SDS011;5906;51.660;6.674;2022-07-21T04:22:33;26.97;;;15.83;;
11699;SDS011;5906;51.660;6.674;2022-07-21T04:25:00;27.40;;;17.27;;
11699;SDS011;5906;51.660;6.674;2022-07-21T04:27:27;24.10;;;16.77;;
11699;SDS011;5906;51.660;6.674;2022-07-21T04:29:54;21.77;;;15.27;;
11699;SDS011;5906;51.660;6.674;2022-07-21T04:32:21;23.80;;;16.77;;
11699;SDS011;5906;51.660;6.674;2022-07-21T04:34:49;24.07;;;16.70;;
11699;SDS011;5906;51.660;6.674;2022-07-21T04:37:16;22.53;;;16.50;;
11699;SDS011;5906;51.660;6.674;2022-07-21T04:39:47;21.77;;;14.33;;
11699;SDS011;5906;51.660;6.674;2022-07-21T04:42:21;24.20;;;16.37;;
11699;SDS011;5906;51.660;6.674;2022-07-21T04:44:51;27.73;;;16.57;;
11699;SDS011;5906;51.660;6.674;2022-07-21T04:47:17;27.93;;;16.50;;
11699;SDS011;5906;51.660;6.674;2022-07-21T04:49:45;23.70;;;17.00;;
11699;SDS011;5906;51.660;6.674;2022-07-21T04:52:12;29.67;;;17.77;;
11699;SDS011;5906;51.660;6.674;2022-07-21T04:54:39;27.97;;;17.03;;
11699;SDS011;5906;51.660;6.674;2022-07-21T04:57:06;24.90;;;17.50;;
11699;SDS011;5906;51.660;6.674;2022-07-21T04:59:33;24.77;;;17.20;;
11699;SDS011;5906;51.660;6.674;2022-07-21T05:02:01;23.73;;;17.40;;
11699;SDS011;5906;51.660;6.674;2022-07-21T05:04:28;24.33;;;16.50;;
11699;SDS011;5906;51.660;6.674;2022-07-21T05:06:55;30.23;;;17.90;;
11699;SDS011;5906;51.660;6.674;2022-07-21T05:09:23;24.20;;;17.73;;
11699;SDS011;5906;51.660;6.674;2022-07-21T05:11:49;28.63;;;17.87;;
11699;SDS011;5906;51.660;6.674;2022-07-21T05:14:16;24.93;;;17.43;;
11699;SDS011;5906;51.660;6.674;2022-07-21T05:16:43;24.40;;;17.57;;
11699;SDS011;5906;51.660;6.674;2022-07-21T05:19:10;26.33;;;17.43;;
11699;SDS011;5906;51.660;6.674;2022-07-21T05:21:37;30.73;;;18.27;;
11699;SDS011;5906;51.660;6.674;2022-07-21T05:24:04;29.00;;;17.80;;
11699;SDS011;5906;51.660;6.674;2022-07-21T05:26:31;28.67;;;17.40;;
11699;SDS011;5906;51.660;6.674;2022-07-21T05:28:58;23.90;;;17.80;;
11699;SDS011;5906;51.660;6.674;2022-07-21T05:31:25;25.07;;;17.03;;
11699;SDS011;5906;51.660;6.674;2022-07-21T05:33:51;34.67;;;18.60;;
11699;SDS011;5906;51.660;6.674;2022-07-21T05:36:18;34.47;;;18.83;;
11699;SDS011;5906;51.660;6.674;2022-07-21T05:38:46;23.90;;;18.93;;
11699;SDS011;5906;51.660;6.674;2022-07-21T05:41:13;25.90;;;18.47;;
11699;SDS011;5906;51.660;6.674;2022-07-21T05:43:40;25.20;;;18.10;;
11699;SDS011;5906;51.660;6.674;2022-07-21T05:46:07;30.43;;;18.83;;
11699;SDS011;5906;51.660;6.674;2022-07-21T05:48:34;23.40;;;17.20;;
11699;SDS011;5906;51.660;6.674;2022-07-21T05:51:00;24.63;;;18.00;;
11699;SDS011;5906;51.660;6.674;2022-07-21T05:53:27;30.00;;;18.90;;
11699;SDS011;5906;51.660;6.674;2022-07-21T05:55:54;28.50;;;18.90;;
11699;SDS011;5906;51.660;6.674;2022-07-21T05:58:21;32.23;;;19.60;;
11699;SDS011;5906;51.660;6.674;2022-07-21T06:00:51;29.30;;;19.97;;
11699;SDS011;5906;51.660;6.674;2022-07-21T06:03:35;29.93;;;18.90;;
11699;SDS011;5906;51.660;6.674;2022-07-21T06:06:03;25.90;;;18.30;;
11699;SDS011;5906;51.660;6.674;2022-07-21T06:08:30;25.10;;;19.77;;
11699;SDS011;5906;51.660;6.674;2022-07-21T06:10:57;30.73;;;20.50;;
11699;SDS011;5906;51.660;6.674;2022-07-21T06:13:24;29.43;;;19.47;;
11699;SDS011;5906;51.660;6.674;2022-07-21T06:15:51;29.17;;;19.70;;
11699;SDS011;5906;51.660;6.674;2022-07-21T06:18:17;30.00;;;21.10;;
11699;SDS011;5906;51.660;6.674;2022-07-21T06:20:44;29.20;;;19.40;;
11699;SDS011;5906;51.660;6.674;2022-07-21T06:23:11;30.70;;;19.23;;
11699;SDS011;5906;51.660;6.674;2022-07-21T06:25:38;29.57;;;19.80;;
11699;SDS011;5906;51.660;6.674;2022-07-21T06:28:05;24.47;;;18.90;;
11699;SDS011;5906;51.660;6.674;2022-07-21T06:30:31;23.10;;;18.93;;
11699;SDS011;5906;51.660;6.674;2022-07-21T06:32:58;34.00;;;19.10;;
11699;SDS011;5906;51.660;6.674;2022-07-21T06:35:25;29.93;;;18.53;;
11699;SDS011;5906;51.660;6.674;2022-07-21T06:37:52;28.13;;;19.50;;
11699;SDS011;5906;51.660;6.674;2022-07-21T06:40:19;31.17;;;19.37;;
11699;SDS011;5906;51.660;6.674;2022-07-21T06:42:46;27.57;;;19.40;;
11699;SDS011;5906;51.660;6.674;2022-07-21T06:45:33;26.80;;;19.77;;
11699;SDS011;5906;51.660;6.674;2022-07-21T06:48:03;28.20;;;20.20;;
11699;SDS011;5906;51.660;6.674;2022-07-21T06:50:33;30.83;;;19.90;;
11699;SDS011;5906;51.660;6.674;2022-07-21T06:53:01;30.33;;;20.00;;
11699;SDS011;5906;51.660;6.674;2022-07-21T06:55:28;34.10;;;19.40;;
11699;SDS011;5906;51.660;6.674;2022-07-21T06:57:55;32.27;;;17.27;;
11699;SDS011;5906;51.660;6.674;2022-07-21T07:00:22;28.93;;;18.03;;
11699;SDS011;5906;51.660;6.674;2022-07-21T07:02:49;25.83;;;18.53;;
11699;SDS011;5906;51.660;6.674;2022-07-21T07:05:16;22.23;;;17.03;;
11699;SDS011;5906;51.660;6.674;2022-07-21T07:07:43;25.70;;;17.57;;
11699;SDS011;5906;51.660;6.674;2022-07-21T07:10:09;19.50;;;16.00;;
11699;SDS011;5906;51.660;6.674;2022-07-21T07:12:37;32.03;;;18.00;;
11699;SDS011;5906;51.660;6.674;2022-07-21T07:15:24;18.73;;;15.37;;
11699;SDS011;5906;51.660;6.674;2022-07-21T07:17:51;18.80;;;14.10;;
11699;SDS011;5906;51.660;6.674;2022-07-21T07:20:18;25.57;;;15.03;;
11699;SDS011;5906;51.660;6.674;2022-07-21T07:22:46;24.27;;;14.20;;
11699;SDS011;5906;51.660;6.674;2022-07-21T07:25:13;22.13;;;12.53;;
11699;SDS011;5906;51.660;6.674;2022-07-21T07:27:43;17.37;;;13.57;;
11699;SDS011;5906;51.660;6.674;2022-07-21T07:30:12;19.67;;;12.70;;
11699;SDS011;5906;51.660;6.674;2022-07-21T07:32:39;18.13;;;13.10;;
11699;SDS011;5906;51.660;6.674;2022-07-21T07:35:07;21.73;;;12.73;;
11699;SDS011;5906;51.660;6.674;2022-07-21T07:37:36;15.37;;;12.80;;
11699;SDS011;5906;51.660;6.674;2022-07-21T07:40:05;19.57;;;12.80;;
11699;SDS011;5906;51.660;6.674;2022-07-21T07:42:34;19.70;;;13.23;;
11699;SDS011;5906;51.660;6.674;2022-07-21T07:45:02;22.23;;;13.03;;
11699;SDS011;5906;51.660;6.674;2022-07-21T07:47:31;19.60;;;13.70;;
11699;SDS011;5906;51.660;6.674;2022-07-21T07:49:58;24.73;;;12.83;;
11699;SDS011;5906;51.660;6.674;2022-07-21T07:52:25;21.37;;;12.60;;
11699;SDS011;5906;51.660;6.674;2022-07-21T07:54:52;17.50;;;11.63;;
11699;SDS011;5906;51.660;6.674;2022-07-21T07:57:19;20.90;;;12.43;;
11699;SDS011;5906;51.660;6.674;2022-07-21T07:59:46;18.07;;;12.40;;
11699;SDS011;5906;51.660;6.674;2022-07-21T08:02:12;15.20;;;12.47;;
11699;SDS011;5906;51.660;6.674;2022-07-21T08:04:39;21.57;;;12.30;;
11699;SDS011;5906;51.660;6.674;2022-07-21T08:07:09;18.40;;;11.50;;
11699;SDS011;5906;51.660;6.674;2022-07-21T08:09:36;12.43;;;10.60;;
11699;SDS011;5906;51.660;6.674;2022-07-21T08:12:03;17.33;;;11.67;;
11699;SDS011;5906;51.660;6.674;2022-07-21T08:14:30;18.80;;;10.07;;
11699;SDS011;5906;51.660;6.674;2022-07-21T08:16:58;19.97;;;11.47;;
11699;SDS011;5906;51.660;6.674;2022-07-21T08:19:26;15.67;;;9.93;;
11699;SDS011;5906;51.660;6.674;2022-07-21T08:21:53;15.87;;;11.23;;
11699;SDS011;5906;51.660;6.674;2022-07-21T08:24:38;18.80;;;11.53;;
11699;SDS011;5906;51.660;6.674;2022-07-21T08:27:08;13.97;;;10.57;;
11699;SDS011;5906;51.660;6.674;2022-07-21T08:29:34;16.60;;;10.23;;
11699;SDS011;5906;51.660;6.674;2022-07-21T08:32:01;14.23;;;10.60;;
11699;SDS011;5906;51.660;6.674;2022-07-21T08:34:28;17.50;;;11.90;;
11699;SDS011;5906;51.660;6.674;2022-07-21T08:36:55;13.47;;;11.33;;
11699;SDS011;5906;51.660;6.674;2022-07-21T08:39:22;17.43;;;11.27;;
11699;SDS011;5906;51.660;6.674;2022-07-21T08:41:49;12.37;;;10.30;;
11699;SDS011;5906;51.660;6.674;2022-07-21T08:44:17;17.80;;;11.07;;
11699;SDS011;5906;51.660;6.674;2022-07-21T08:46:49;17.73;;;11.10;;
11699;SDS011;5906;51.660;6.674;2022-07-21T08:49:19;13.37;;;9.73;;
11699;SDS011;5906;51.660;6.674;2022-07-21T08:51:51;15.33;;;10.03;;
11699;SDS011;5906;51.660;6.674;2022-07-21T08:54:21;16.47;;;9.80;;
11699;SDS011;5906;51.660;6.674;2022-07-21T08:56:48;14.93;;;10.40;;
11699;SDS011;5906;51.660;6.674;2022-07-21T08:59:16;15.63;;;8.70;;
11699;SDS011;5906;51.660;6.674;2022-07-21T09:01:44;13.90;;;8.90;;
11699;SDS011;5906;51.660;6.674;2022-07-21T09:07:02;13.73;;;8.30;;
11699;SDS011;5906;51.660;6.674;2022-07-21T09:09:31;13.60;;;8.13;;
11699;SDS011;5906;51.660;6.674;2022-07-21T09:11:59;10.53;;;7.37;;
11699;SDS011;5906;51.660;6.674;2022-07-21T09:14:31;12.20;;;8.50;;
11699;SDS011;5906;51.660;6.674;2022-07-21T09:17:00;12.67;;;8.67;;
11699;SDS011;5906;51.660;6.674;2022-07-21T09:19:35;16.07;;;8.33;;
11699;SDS011;5906;51.660;6.674;2022-07-21T09:22:06;12.60;;;8.23;;
11699;SDS011;5906;51.660;6.674;2022-07-21T09:24:38;13.33;;;9.00;;
11699;SDS011;5906;51.660;6.674;2022-07-21T09:27:20;12.67;;;8.90;;
11699;SDS011;5906;51.660;6.674;2022-07-21T09:29:56;18.60;;;9.63;;
11699;SDS011;5906;51.660;6.674;2022-07-21T09:35:00;14.33;;;8.97;;
11699;SDS011;5906;51.660;6.674;2022-07-21T09:37:33;15.40;;;9.20;;
11699;SDS011;5906;51.660;6.674;2022-07-21T09:42:38;12.90;;;9.90;;
11699;SDS011;5906;51.660;6.674;2022-07-21T09:45:11;18.60;;;10.17;;
11699;SDS011;5906;51.660;6.674;2022-07-21T09:47:40;13.37;;;10.00;;
11699;SDS011;5906;51.660;6.674;2022-07-21T09:50:08;14.23;;;10.17;;
11699;SDS011;5906;51.660;6.674;2022-07-21T09:52:50;14.23;;;10.50;;
11699;SDS011;5906;51.660;6.674;2022-07-21T09:55:20;19.53;;;11.03;;
11699;SDS011;5906;51.660;6.674;2022-07-21T09:57:46;20.20;;;11.40;;
11699;SDS011;5906;51.660;6.674;2022-07-21T10:00:15;21.23;;;11.70;;
11699;SDS011;5906;51.660;6.674;2022-07-21T10:02:45;19.70;;;12.00;;
11699;SDS011;5906;51.660;6.674;2022-07-21T10:05:18;17.83;;;12.40;;
11699;SDS011;5906;51.660;6.674;2022-07-21T10:07:56;15.00;;;12.07;;
11699;SDS011;5906;51.660;6.674;2022-07-21T10:10:24;19.63;;;12.60;;
11699;SDS011;5906;51.660;6.674;2022-07-21T10:13:10;14.23;;;11.80;;
11699;SDS011;5906;51.660;6.674;2022-07-21T10:15:38;16.47;;;12.47;;
11699;SDS011;5906;51.660;6.674;2022-07-21T10:18:06;18.67;;;12.40;;
11699;SDS011;5906;51.660;6.674;2022-07-21T10:20:36;19.40;;;13.00;;
11699;SDS011;5906;51.660;6.674;2022-07-21T10:23:12;20.67;;;12.23;;
11699;SDS011;5906;51.660;6.674;2022-07-21T10:25:45;16.63;;;13.30;;
11699;SDS011;5906;51.660;6.674;2022-07-21T10:28:17;18.83;;;13.27;;
11699;SDS011;5906;51.660;6.674;2022-07-21T10:30:52;23.07;;;14.13;;
11699;SDS011;5906;51.660;6.674;2022-07-21T10:36:11;16.57;;;10.47;;
11699;SDS011;5906;51.660;6.674;2022-07-21T10:41:37;16.83;;;9.57;;
11699;SDS011;5906;51.660;6.674;2022-07-21T10:47:07;16.93;;;10.57;;
11699;SDS011;5906;51.660;6.674;2022-07-21T11:01:03;14.53;;;11.17;;
11699;SDS011;5906;51.660;6.674;2022-07-21T11:04:08;14.43;;;10.80;;
11699;SDS011;5906;51.660;6.674;2022-07-21T11:06:37;12.43;;;10.33;;
11699;SDS011;5906;51.660;6.674;2022-07-21T11:11:34;12.70;;;8.70;;
11699;SDS011;5906;51.660;6.674;2022-07-21T11:21:59;14.03;;;8.77;;
11699;SDS011;5906;51.660;6.674;2022-07-21T11:24:38;14.07;;;8.97;;
11699;SDS011;5906;51.660;6.674;2022-07-21T11:27:08;12.77;;;10.20;;
11699;SDS011;5906;51.660;6.674;2022-07-21T11:29:40;15.03;;;9.80;;
11699;SDS011;5906;51.660;6.674;2022-07-21T11:32:08;11.63;;;9.97;;
11699;SDS011;5906;51.660;6.674;2022-07-21T11:37:25;15.43;;;10.27;;
11699;SDS011;5906;51.660;6.674;2022-07-21T11:42:36;14.80;;;10.03;;
11699;SDS011;5906;51.660;6.674;2022-07-21T11:45:04;16.73;;;10.47;;
11699;SDS011;5906;51.660;6.674;2022-07-21T11:47:32;16.63;;;10.57;;
11699;SDS011;5906;51.660;6.674;2022-07-21T11:50:00;14.27;;;9.80;;
11699;SDS011;5906;51.660;6.674;2022-07-21T11:52:32;13.23;;;10.20;;
11699;SDS011;5906;51.660;6.674;2022-07-21T11:55:01;16.20;;;10.53;;
11699;SDS011;5906;51.660;6.674;2022-07-21T11:57:30;14.20;;;9.70;;
11699;SDS011;5906;51.660;6.674;2022-07-21T11:59:58;15.60;;;9.87;;
11699;SDS011;5906;51.660;6.674;2022-07-21T12:02:26;15.80;;;9.93;;
11699;SDS011;5906;51.660;6.674;2022-07-21T12:07:31;12.87;;;9.20;;
11699;SDS011;5906;51.660;6.674;2022-07-21T12:10:06;15.40;;;8.27;;
11699;SDS011;5906;51.660;6.674;2022-07-21T12:12:36;11.20;;;7.33;;
11699;SDS011;5906;51.660;6.674;2022-07-21T12:15:13;9.73;;;7.30;;
11699;SDS011;5906;51.660;6.674;2022-07-21T12:18:02;8.30;;;6.60;;
11699;SDS011;5906;51.660;6.674;2022-07-21T12:23:17;8.10;;;5.90;;
11699;SDS011;5906;51.660;6.674;2022-07-21T12:25:55;6.77;;;5.80;;
11699;SDS011;5906;51.660;6.674;2022-07-21T12:31:11;6.50;;;5.20;;
11699;SDS011;5906;51.660;6.674;2022-07-21T12:33:40;6.27;;;5.33;;
11699;SDS011;5906;51.660;6.674;2022-07-21T12:36:28;5.87;;;4.93;;
11699;SDS011;5906;51.660;6.674;2022-07-21T12:38:54;6.03;;;5.40;;
11699;SDS011;5906;51.660;6.674;2022-07-21T12:41:22;5.80;;;5.27;;
11699;SDS011;5906;51.660;6.674;2022-07-21T12:46:27;8.60;;;5.97;;
11699;SDS011;5906;51.660;6.674;2022-07-21T12:49:30;15.00;;;6.37;;
11699;SDS011;5906;51.660;6.674;2022-07-21T12:51:55;8.40;;;6.00;;
11699;SDS011;5906;51.660;6.674;2022-07-21T12:54:22;6.50;;;5.80;;
11699;SDS011;5906;51.660;6.674;2022-07-21T12:56:49;8.00;;;6.00;;
11699;SDS011;5906;51.660;6.674;2022-07-21T12:59:16;7.77;;;6.30;;
11699;SDS011;5906;51.660;6.674;2022-07-21T13:01:45;7.10;;;6.23;;
11699;SDS011;5906;51.660;6.674;2022-07-21T13:04:11;9.30;;;7.10;;
11699;SDS011;5906;51.660;6.674;2022-07-21T13:06:38;7.97;;;6.80;;
11699;SDS011;5906;51.660;6.674;2022-07-21T13:09:05;7.27;;;6.03;;
11699;SDS011;5906;51.660;6.674;2022-07-21T13:11:32;8.10;;;6.93;;
11699;SDS011;5906;51.660;6.674;2022-07-21T13:13:58;8.40;;;7.50;;
11699;SDS011;5906;51.660;6.674;2022-07-21T13:16:28;9.20;;;8.17;;
11699;SDS011;5906;51.660;6.674;2022-07-21T13:18:56;10.07;;;7.40;;
11699;SDS011;5906;51.660;6.674;2022-07-21T13:21:24;10.77;;;7.93;;
11699;SDS011;5906;51.660;6.674;2022-07-21T13:23:50;10.07;;;8.67;;
11699;SDS011;5906;51.660;6.674;2022-07-21T13:26:17;11.70;;;8.70;;
11699;SDS011;5906;51.660;6.674;2022-07-21T13:28:44;11.93;;;8.57;;
11699;SDS011;5906;51.660;6.674;2022-07-21T13:31:11;12.13;;;9.33;;
11699;SDS011;5906;51.660;6.674;2022-07-21T13:33:38;12.00;;;8.43;;
11699;SDS011;5906;51.660;6.674;2022-07-21T13:36:05;9.80;;;8.80;;
11699;SDS011;5906;51.660;6.674;2022-07-21T13:38:33;9.43;;;8.40;;
11699;SDS011;5906;51.660;6.674;2022-07-21T13:41:00;12.37;;;8.70;;
11699;SDS011;5906;51.660;6.674;2022-07-21T13:43:47;13.50;;;7.90;;
11699;SDS011;5906;51.660;6.674;2022-07-21T13:46:14;9.90;;;8.20;;
11699;SDS011;5906;51.660;6.674;2022-07-21T13:48:41;12.53;;;8.23;;
11699;SDS011;5906;51.660;6.674;2022-07-21T13:51:14;12.10;;;8.20;;
11699;SDS011;5906;51.660;6.674;2022-07-21T13:53:42;10.50;;;7.57;;
11699;SDS011;5906;51.660;6.674;2022-07-21T13:56:11;9.70;;;8.30;;
11699;SDS011;5906;51.660;6.674;2022-07-21T13:58:39;10.43;;;8.13;;
11699;SDS011;5906;51.660;6.674;2022-07-21T14:01:08;8.87;;;7.83;;
11699;SDS011;5906;51.660;6.674;2022-07-21T14:03:36;9.60;;;8.00;;
11699;SDS011;5906;51.660;6.674;2022-07-21T14:06:04;13.23;;;8.27;;
11699;SDS011;5906;51.660;6.674;2022-07-21T14:08:31;10.63;;;8.27;;
11699;SDS011;5906;51.660;6.674;2022-07-21T14:10:58;9.83;;;8.83;;
11699;SDS011;5906;51.660;6.674;2022-07-21T14:13:25;9.77;;;8.20;;
11699;SDS011;5906;51.660;6.674;2022-07-21T14:15:51;11.50;;;9.37;;
11699;SDS011;5906;51.660;6.674;2022-07-21T14:18:19;11.03;;;9.60;;
11699;SDS011;5906;51.660;6.674;2022-07-21T14:20:46;10.93;;;8.63;;
11699;SDS011;5906;51.660;6.674;2022-07-21T14:23:14;9.90;;;8.90;;
11699;SDS011;5906;51.660;6.674;2022-07-21T14:25:41;12.30;;;8.60;;
11699;SDS011;5906;51.660;6.674;2022-07-21T14:28:08;10.83;;;7.73;;
11699;SDS011;5906;51.660;6.674;2022-07-21T14:30:34;11.67;;;8.07;;
11699;SDS011;5906;51.660;6.674;2022-07-21T14:33:01;9.40;;;7.10;;
11699;SDS011;5906;51.660;6.674;2022-07-21T14:35:28;11.33;;;7.83;;
11699;SDS011;5906;51.660;6.674;2022-07-21T14:37:55;8.77;;;7.13;;
11699;SDS011;5906;51.660;6.674;2022-07-21T14:40:21;9.20;;;6.73;;
11699;SDS011;5906;51.660;6.674;2022-07-21T14:42:49;7.23;;;6.50;;
11699;SDS011;5906;51.660;6.674;2022-07-21T14:45:18;8.60;;;6.70;;
11699;SDS011;5906;51.660;6.674;2022-07-21T14:47:52;7.00;;;6.30;;
11699;SDS011;5906;51.660;6.674;2022-07-21T14:50:21;7.90;;;6.63;;
11699;SDS011;5906;51.660;6.674;2022-07-21T14:52:53;8.07;;;6.90;;
11699;SDS011;5906;51.660;6.674;2022-07-21T14:55:21;8.20;;;7.30;;
11699;SDS011;5906;51.660;6.674;2022-07-21T14:57:51;7.53;;;6.73;;
11699;SDS011;5906;51.660;6.674;2022-07-21T15:00:18;8.40;;;7.50;;
11699;SDS011;5906;51.660;6.674;2022-07-21T15:02:45;8.43;;;7.40;;
11699;SDS011;5906;51.660;6.674;2022-07-21T15:05:12;9.43;;;7.70;;
11699;SDS011;5906;51.660;6.674;2022-07-21T15:07:39;8.67;;;7.77;;
11699;SDS011;5906;51.660;6.674;2022-07-21T15:10:06;10.77;;;7.33;;
11699;SDS011;5906;51.660;6.674;2022-07-21T15:12:33;8.97;;;7.70;;
11699;SDS011;5906;51.660;6.674;2022-07-21T15:15:00;12.17;;;8.60;;
11699;SDS011;5906;51.660;6.674;2022-07-21T15:17:27;11.47;;;8.80;;
11699;SDS011;5906;51.660;6.674;2022-07-21T15:19:55;10.53;;;8.93;;
11699;SDS011;5906;51.660;6.674;2022-07-21T15:22:25;10.73;;;9.10;;
11699;SDS011;5906;51.660;6.674;2022-07-21T15:24:58;13.90;;;9.47;;
11699;SDS011;5906;51.660;6.674;2022-07-21T15:27:26;10.83;;;9.20;;
11699;SDS011;5906;51.660;6.674;2022-07-21T15:29:53;13.53;;;9.20;;
11699;SDS011;5906;51.660;6.674;2022-07-21T15:32:19;13.50;;;9.93;;
11699;SDS011;5906;51.660;6.674;2022-07-21T15:34:46;10.00;;;8.87;;
11699;SDS011;5906;51.660;6.674;2022-07-21T15:37:13;12.50;;;8.87;;
11699;SDS011;5906;51.660;6.674;2022-07-21T15:39:40;10.83;;;8.50;;
11699;SDS011;5906;51.660;6.674;2022-07-21T15:42:07;13.30;;;9.07;;
11699;SDS011;5906;51.660;6.674;2022-07-21T15:44:35;12.20;;;9.20;;